Time;durP1;ratioP1;P1;durP2;ratioP2;P2;SDS_P1;SDS_P2;PMS_P1;PMS_P2;Temp;Humidity;BMP_temperature;BMP_pressure;BME280_temperature;BME280_humidity;BME280_pressure;Samples;Min_cycle;Max_cycle;Signal;HPM_P1;HPM_P2
2022/07/12 00:00:36;;;;;;;9.82;2.50;;;;;;;;;;10021752;28;20133;-72
2022/07/12 00:05:30;;;;;;;9.27;2.58;;;;;;;;;;10018787;28;20065;-71
2022/07/12 00:10:24;;;;;;;3.70;1.92;;;;;;;;;;10049726;28;20043;-69
2022/07/12 00:15:19;;;;;;;2.90;2.15;;;;;;;;;;10035421;28;20544;-72
2022/07/12 00:20:13;;;;;;;3.83;1.95;;;;;;;;;;10028023;28;20124;-72
2022/07/12 00:25:07;;;;;;;6.78;2.50;;;;;;;;;;10045415;28;20562;-72
2022/07/12 00:30:02;;;;;;;9.05;2.10;;;;;;;;;;10045719;28;20492;-72
2022/07/12 00:34:56;;;;;;;5.57;2.00;;;;;;;;;;10030976;28;20109;-65
2022/07/12 00:39:49;;;;;;;3.80;2.10;;;;;;;;;;10037361;28;20053;-65
2022/07/12 00:44:43;;;;;;;9.77;2.28;;;;;;;;;;10038881;28;20059;-65
2022/07/12 00:49:37;;;;;;;5.88;3.25;;;;;;;;;;10043814;28;20561;-67
2022/07/12 00:54:31;;;;;;;7.38;2.05;;;;;;;;;;10044570;28;20053;-66
2022/07/12 00:59:26;;;;;;;10.63;2.20;;;;;;;;;;10051638;28;20065;-65
2022/07/12 01:04:59;;;;;;;10.13;2.88;;;;;;;;;;10038251;28;20073;-65
2022/07/12 01:10:16;;;;;;;6.07;2.72;;;;;;;;;;10046509;28;20107;-65
2022/07/12 01:15:10;;;;;;;10.13;2.30;;;;;;;;;;10053957;28;20072;-66
2022/07/12 01:20:06;;;;;;;5.93;2.00;;;;;;;;;;10021933;28;20107;-63
2022/07/12 01:25:00;;;;;;;3.45;1.80;;;;;;;;;;10009779;28;20054;-65
2022/07/12 01:29:55;;;;;;;5.93;2.35;;;;;;;;;;10056065;28;20453;-65
2022/07/12 01:35:19;;;;;;;3.10;2.20;;;;;;;;;;10022115;28;20117;-65
2022/07/12 01:40:15;;;;;;;4.70;2.30;;;;;;;;;;10043626;28;20516;-65
2022/07/12 01:45:09;;;;;;;5.00;2.30;;;;;;;;;;10044807;28;20072;-65
2022/07/12 01:50:07;;;;;;;4.03;2.05;;;;;;;;;;10053313;28;20050;-65
2022/07/12 01:55:02;;;;;;;6.13;1.88;;;;;;;;;;10021829;28;20041;-65
2022/07/12 01:59:56;;;;;;;3.65;2.30;;;;;;;;;;10014733;28;20073;-66
2022/07/12 02:04:50;;;;;;;3.53;1.90;;;;;;;;;;10029269;28;20054;-64
2022/07/12 02:09:45;;;;;;;5.32;2.25;;;;;;;;;;10007204;28;20058;-65
2022/07/12 02:14:39;;;;;;;2.42;2.17;;;;;;;;;;10037581;28;20057;-65
2022/07/12 02:19:33;;;;;;;2.67;2.03;;;;;;;;;;10026916;28;20058;-65
2022/07/12 02:24:27;;;;;;;4.80;2.28;;;;;;;;;;10027173;28;20070;-65
2022/07/12 02:29:20;;;;;;;2.78;1.92;;;;;;;;;;10004800;28;20056;-65
2022/07/12 02:34:15;;;;;;;9.05;2.20;;;;;;;;;;10021128;28;20172;-65
2022/07/12 02:39:11;;;;;;;11.18;2.42;;;;;;;;;;10016950;28;20054;-65
2022/07/12 02:44:05;;;;;;;3.03;2.17;;;;;;;;;;9999622;28;20105;-65
2022/07/12 02:49:00;;;;;;;4.78;1.88;;;;;;;;;;10049540;28;20061;-65
2022/07/12 02:53:53;;;;;;;7.18;2.03;;;;;;;;;;10046498;28;20071;-65
2022/07/12 02:58:47;;;;;;;5.10;2.08;;;;;;;;;;10064914;28;20504;-65
2022/07/12 03:03:41;;;;;;;4.30;2.40;;;;;;;;;;10053117;28;20058;-65
2022/07/12 03:08:36;;;;;;;6.50;3.47;;;;;;;;;;10041574;28;20053;-65
2022/07/12 03:13:30;;;;;;;4.55;2.88;;;;;;;;;;10038638;28;20054;-65
2022/07/12 03:18:25;;;;;;;13.25;3.13;;;;;;;;;;10028639;28;20686;-65
2022/07/12 03:23:19;;;;;;;4.22;2.60;;;;;;;;;;10019035;28;20057;-65
2022/07/12 03:28:13;;;;;;;7.28;2.50;;;;;;;;;;10043516;28;20057;-65
2022/07/12 03:33:07;;;;;;;2.78;2.42;;;;;;;;;;10051372;28;20539;-65
2022/07/12 03:38:03;;;;;;;5.95;2.97;;;;;;;;;;10040768;28;20110;-65
2022/07/12 03:42:58;;;;;;;3.05;2.70;;;;;;;;;;10011921;28;20051;-65
2022/07/12 03:47:52;;;;;;;9.02;2.55;;;;;;;;;;10001957;28;20058;-65
2022/07/12 03:52:46;;;;;;;4.70;2.22;;;;;;;;;;10041444;28;20038;-65
2022/07/12 03:57:40;;;;;;;8.40;2.78;;;;;;;;;;10040875;28;20129;-65
2022/07/12 04:02:34;;;;;;;7.68;3.42;;;;;;;;;;10053464;28;20058;-65
2022/07/12 04:07:28;;;;;;;4.63;2.38;;;;;;;;;;10063723;28;20049;-65
2022/07/12 04:12:22;;;;;;;5.75;2.20;;;;;;;;;;10052219;28;20046;-65
2022/07/12 04:17:18;;;;;;;4.93;2.05;;;;;;;;;;10033597;28;20093;-65
2022/07/12 04:22:14;;;;;;;;;;;;;;;;;;10022779;28;20493;-65
2022/07/12 04:27:08;;;;;;;5.18;2.30;;;;;;;;;;10016510;28;19922;-65
2022/07/12 04:32:03;;;;;;;3.25;2.50;;;;;;;;;;10027051;28;20116;-65
2022/07/12 04:36:57;;;;;;;5.22;2.50;;;;;;;;;;10024552;28;20513;-65
2022/07/12 04:41:52;;;;;;;3.33;2.78;;;;;;;;;;10032442;28;20062;-64
2022/07/12 04:46:46;;;;;;;11.10;2.83;;;;;;;;;;10017690;28;20060;-64
2022/07/12 04:51:40;;;;;;;5.20;2.70;;;;;;;;;;10042785;28;20103;-64
2022/07/12 04:56:34;;;;;;;3.58;2.42;;;;;;;;;;10015536;28;20133;-64
2022/07/12 05:01:48;;;;;;;6.22;2.67;;;;;;;;;;10034654;28;20054;-64
2022/07/12 05:06:42;;;;;;;2.78;2.45;;;;;;;;;;10040513;28;20046;-65
2022/07/12 05:11:37;;;;;;;4.20;2.70;;;;;;;;;;10027501;28;20898;-65
2022/07/12 05:16:31;;;;;;;6.00;3.13;;;;;;;;;;10039873;28;20058;-65
2022/07/12 05:21:26;;;;;;;3.90;3.15;;;;;;;;;;10051185;28;20140;-65
2022/07/12 05:26:21;;;;;;;9.55;3.40;;;;;;;;;;10049879;28;20049;-65
2022/07/12 05:31:15;;;;;;;5.35;2.70;;;;;;;;;;10039833;28;20048;-64
2022/07/12 05:36:08;;;;;;;6.85;3.50;;;;;;;;;;10034602;28;20046;-65
2022/07/12 05:41:02;;;;;;;5.90;2.63;;;;;;;;;;10047964;28;20120;-64
2022/07/12 05:45:57;;;;;;;8.98;3.25;;;;;;;;;;10031128;28;20049;-65
2022/07/12 05:50:52;;;;;;;6.40;2.92;;;;;;;;;;10009296;28;20054;-65
2022/07/12 05:55:46;;;;;;;7.63;3.00;;;;;;;;;;10021140;28;20100;-65
2022/07/12 06:00:40;;;;;;;4.50;2.83;;;;;;;;;;10027334;28;20447;-65
2022/07/12 06:05:34;;;;;;;6.90;3.10;;;;;;;;;;10018785;28;20124;-65
2022/07/12 06:10:29;;;;;;;4.57;2.80;;;;;;;;;;10008793;28;20096;-64
2022/07/12 06:15:24;;;;;;;4.78;3.15;;;;;;;;;;10010454;28;20583;-63
2022/07/12 06:20:26;;;;;;;4.05;3.10;;;;;;;;;;10004306;28;20054;-64
2022/07/12 06:25:20;;;;;;;5.30;2.72;;;;;;;;;;10021392;28;20059;-64
2022/07/12 06:30:32;;;;;;;4.70;2.20;;;;;;;;;;10003702;28;20505;-64
2022/07/12 06:35:28;;;;;;;5.43;2.10;;;;;;;;;;10005532;28;20109;-64
2022/07/12 06:40:22;;;;;;;5.97;2.50;;;;;;;;;;10011963;28;20050;-64
2022/07/12 06:45:15;;;;;;;4.72;2.30;;;;;;;;;;10021979;28;20057;-64
2022/07/12 06:50:09;;;;;;;7.85;2.30;;;;;;;;;;10015006;28;20054;-64
2022/07/12 06:55:04;;;;;;;8.95;3.30;;;;;;;;;;10018859;28;20076;-64
2022/07/12 06:59:57;;;;;;;3.65;2.10;;;;;;;;;;10018360;28;20061;-65
2022/07/12 07:04:51;;;;;;;4.22;2.13;;;;;;;;;;10022336;28;20064;-64
2022/07/12 07:09:45;;;;;;;6.93;2.50;;;;;;;;;;10022676;28;20050;-65
2022/07/12 07:14:39;;;;;;;2.63;1.90;;;;;;;;;;10011835;28;20050;-65
2022/07/12 07:19:33;;;;;;;5.43;2.40;;;;;;;;;;10018390;28;20058;-65
2022/07/12 07:24:27;;;;;;;3.17;2.10;;;;;;;;;;9998943;28;20470;-64
2022/07/12 07:34:33;;;;;;;10.30;2.45;;;;;;;;;;10014523;28;20077;-65
2022/07/12 07:39:26;;;;;;;6.22;2.25;;;;;;;;;;10004454;28;20053;-64
2022/07/12 07:44:19;;;;;;;14.30;2.83;;;;;;;;;;10006725;28;20104;-64
2022/07/12 07:49:14;;;;;;;4.75;2.05;;;;;;;;;;10005151;28;20058;-64
2022/07/12 07:54:08;;;;;;;5.35;2.38;;;;;;;;;;10002033;28;20616;-64
2022/07/12 07:59:01;;;;;;;5.00;2.17;;;;;;;;;;10019430;28;20054;-65
2022/07/12 08:03:56;;;;;;;3.47;2.28;;;;;;;;;;10027383;28;20042;-63
2022/07/12 08:08:50;;;;;;;6.63;2.50;;;;;;;;;;10027356;28;20048;-62
2022/07/12 08:14:07;;;;;;;6.60;2.42;;;;;;;;;;10029275;28;20057;-63
2022/07/12 08:19:02;;;;;;;7.35;2.38;;;;;;;;;;10029820;28;20096;-63
2022/07/12 08:23:57;;;;;;;3.00;1.60;;;;;;;;;;10013730;28;20049;-62
2022/07/12 08:28:51;;;;;;;7.05;2.90;;;;;;;;;;10022889;28;20042;-61
2022/07/12 08:33:46;;;;;;;6.70;1.88;;;;;;;;;;10028030;28;20078;-61
2022/07/12 08:38:43;;;;;;;7.07;2.10;;;;;;;;;;10020178;28;20042;-61
2022/07/12 08:43:37;;;;;;;5.28;2.03;;;;;;;;;;10023947;28;20049;-62
2022/07/12 08:48:33;;;;;;;10.45;2.28;;;;;;;;;;10016347;28;20042;-62
2022/07/12 08:53:26;;;;;;;5.97;2.53;;;;;;;;;;10028130;28;20128;-62
2022/07/12 08:58:20;;;;;;;4.57;1.70;;;;;;;;;;10025879;28;20056;-63
2022/07/12 09:03:14;;;;;;;3.38;2.03;;;;;;;;;;10025698;28;20424;-63
2022/07/12 09:08:10;;;;;;;9.90;3.33;;;;;;;;;;10032412;28;20053;-62
2022/07/12 09:13:04;;;;;;;5.35;2.35;;;;;;;;;;10031152;28;20096;-61
2022/07/12 09:18:13;;;;;;;5.93;2.00;;;;;;;;;;10029992;28;20056;-63
2022/07/12 09:23:09;;;;;;;6.80;2.08;;;;;;;;;;10033831;28;20108;-63
2022/07/12 09:28:28;;;;;;;5.45;2.67;;;;;;;;;;10032469;28;20073;-62
2022/07/12 09:38:38;;;;;;;6.88;2.20;;;;;;;;;;10029352;28;20072;-63
2022/07/12 09:43:32;;;;;;;4.88;2.10;;;;;;;;;;10030827;28;20054;-62
2022/07/12 09:48:30;;;;;;;7.20;2.00;;;;;;;;;;10030984;28;20050;-63
2022/07/12 09:53:33;;;;;;;7.30;2.28;;;;;;;;;;10028361;28;20057;-67
2022/07/12 09:58:47;;;;;;;5.55;1.98;;;;;;;;;;10027185;28;20066;-67
2022/07/12 10:03:43;;;;;;;11.35;2.05;;;;;;;;;;10030388;28;20049;-68
2022/07/12 10:08:37;;;;;;;5.25;1.88;;;;;;;;;;10027039;28;20084;-67
2022/07/12 10:13:32;;;;;;;7.15;2.22;;;;;;;;;;10029462;28;20511;-67
2022/07/12 10:18:25;;;;;;;2.67;1.95;;;;;;;;;;10047066;28;20559;-67
2022/07/12 10:24:13;;;;;;;5.85;1.90;;;;;;;;;;10030782;28;20037;-67
2022/07/12 10:29:09;;;;;;;;;;;;;;;;;;10029218;28;20050;-66
2022/07/12 10:34:24;;;;;;;4.15;1.92;;;;;;;;;;10033324;28;19922;-68
2022/07/12 10:39:18;;;;;;;3.03;1.92;;;;;;;;;;10034205;28;20045;-67
2022/07/12 10:44:33;;;;;;;11.38;2.17;;;;;;;;;;10028506;28;20550;-67
2022/07/12 10:49:31;;;;;;;7.72;2.08;;;;;;;;;;10024343;28;20432;-67
2022/07/12 10:54:25;;;;;;;4.05;1.67;;;;;;;;;;10025361;28;20049;-67
2022/07/12 10:59:19;;;;;;;5.47;1.70;;;;;;;;;;10023632;28;20046;-69
2022/07/12 11:04:13;;;;;;;8.52;1.80;;;;;;;;;;10025542;28;20419;-67
2022/07/12 11:09:11;;;;;;;4.60;1.77;;;;;;;;;;10030847;28;20439;-68
2022/07/12 11:14:05;;;;;;;3.38;1.55;;;;;;;;;;10037051;28;20049;-67
2022/07/12 11:19:00;;;;;;;7.10;1.63;;;;;;;;;;10025730;28;20081;-67
2022/07/12 11:24:00;;;;;;;6.50;1.67;;;;;;;;;;10031801;28;20535;-70
2022/07/12 11:28:57;;;;;;;8.18;1.60;;;;;;;;;;10035322;28;20081;-68
2022/07/12 11:33:51;;;;;;;6.47;1.60;;;;;;;;;;10046726;28;20041;-68
2022/07/12 11:38:46;;;;;;;2.92;1.40;;;;;;;;;;10036575;28;20437;-70
2022/07/12 11:43:40;;;;;;;7.13;1.50;;;;;;;;;;10002069;28;20147;-69
2022/07/12 11:48:35;;;;;;;4.25;1.52;;;;;;;;;;10022047;28;20577;-69
2022/07/12 11:53:30;;;;;;;4.53;2.15;;;;;;;;;;10024107;28;20049;-70
2022/07/12 11:58:25;;;;;;;6.35;1.38;;;;;;;;;;10016153;28;20404;-68
2022/07/12 12:03:21;;;;;;;2.92;1.63;;;;;;;;;;10020654;28;20046;-69
2022/07/12 12:08:18;;;;;;;5.03;1.60;;;;;;;;;;10019218;28;20558;-69
2022/07/12 12:13:16;;;;;;;5.43;1.50;;;;;;;;;;10020449;28;20051;-69
2022/07/12 12:18:11;;;;;;;7.35;1.70;;;;;;;;;;10028213;28;20307;-70
2022/07/12 12:23:23;;;;;;;6.40;1.73;;;;;;;;;;10031237;28;20488;-69
2022/07/12 12:28:17;;;;;;;4.90;1.63;;;;;;;;;;10030909;28;20078;-68
2022/07/12 12:33:12;;;;;;;3.08;1.80;;;;;;;;;;10037592;28;20050;-68
2022/07/12 12:38:15;;;;;;;6.05;1.42;;;;;;;;;;10012330;28;20080;-69
2022/07/12 12:43:10;;;;;;;2.35;1.40;;;;;;;;;;10021672;28;20042;-69
2022/07/12 12:48:06;;;;;;;3.17;2.15;;;;;;;;;;10039122;28;20121;-69
2022/07/12 12:53:07;;;;;;;2.50;1.90;;;;;;;;;;10014790;28;20445;-68
2022/07/12 12:58:01;;;;;;;4.60;1.98;;;;;;;;;;10019671;28;20069;-68
2022/07/12 13:02:58;;;;;;;3.95;1.75;;;;;;;;;;10013882;28;20089;-69
2022/07/12 13:07:53;;;;;;;9.07;1.85;;;;;;;;;;10025550;28;20045;-68
2022/07/12 13:12:47;;;;;;;3.40;1.33;;;;;;;;;;10012305;28;20383;-69
2022/07/12 13:17:42;;;;;;;3.42;1.60;;;;;;;;;;10028103;28;20046;-68
2022/07/12 13:22:37;;;;;;;3.20;1.50;;;;;;;;;;10020327;28;20121;-69
2022/07/12 13:27:31;;;;;;;3.03;1.73;;;;;;;;;;10012850;28;20433;-68
2022/07/12 13:32:24;;;;;;;4.55;1.50;;;;;;;;;;10004996;28;20054;-68
2022/07/12 13:37:17;;;;;;;4.35;1.60;;;;;;;;;;10031107;28;20493;-69
2022/07/12 13:42:10;;;;;;;6.15;1.85;;;;;;;;;;10018744;28;20132;-69
2022/07/12 13:47:05;;;;;;;8.60;1.55;;;;;;;;;;10020206;28;20076;-69
2022/07/12 13:52:01;;;;;;;6.30;1.63;;;;;;;;;;10003928;28;20055;-69
2022/07/12 13:56:54;;;;;;;4.90;1.63;;;;;;;;;;10003867;28;20108;-69
2022/07/12 14:01:48;;;;;;;4.00;1.80;;;;;;;;;;10021555;28;20089;-69
2022/07/12 14:06:42;;;;;;;6.05;2.60;;;;;;;;;;10009850;28;20054;-69
2022/07/12 14:11:36;;;;;;;3.65;1.50;;;;;;;;;;10022080;28;20565;-69
2022/07/12 14:16:31;;;;;;;2.72;1.50;;;;;;;;;;10005891;28;20057;-69
2022/07/12 14:21:27;;;;;;;4.43;1.67;;;;;;;;;;10023247;28;20049;-69
2022/07/12 14:26:22;;;;;;;9.80;1.75;;;;;;;;;;10019450;28;20520;-68
2022/07/12 14:31:16;;;;;;;4.85;1.73;;;;;;;;;;10020956;28;20425;-68
2022/07/12 14:36:10;;;;;;;4.05;1.48;;;;;;;;;;10009286;28;20050;-69
2022/07/12 14:41:04;;;;;;;4.38;1.95;;;;;;;;;;10012811;28;20054;-69
2022/07/12 14:45:59;;;;;;;6.25;1.45;;;;;;;;;;10017642;28;20111;-68
2022/07/12 14:50:53;;;;;;;4.28;1.70;;;;;;;;;;10001234;28;20076;-68
2022/07/12 14:55:47;;;;;;;5.65;1.30;;;;;;;;;;10006264;28;20041;-68
2022/07/12 15:00:41;;;;;;;5.15;1.63;;;;;;;;;;10011645;28;20532;-69
2022/07/12 15:05:35;;;;;;;8.60;2.22;;;;;;;;;;10014307;28;20049;-68
2022/07/12 15:10:29;;;;;;;5.22;1.55;;;;;;;;;;10028014;28;20049;-69
2022/07/12 15:15:23;;;;;;;6.07;1.98;;;;;;;;;;10030054;28;20080;-68
2022/07/12 15:20:18;;;;;;;3.25;1.55;;;;;;;;;;10018174;28;20065;-74
2022/07/12 15:25:11;;;;;;;9.80;1.95;;;;;;;;;;10027023;28;20497;-75
2022/07/12 15:30:06;;;;;;;7.22;1.55;;;;;;;;;;10024643;28;20132;-73
2022/07/12 15:35:00;;;;;;;2.97;1.60;;;;;;;;;;10038875;28;20057;-75
2022/07/12 15:39:54;;;;;;;6.75;1.80;;;;;;;;;;10042811;28;20046;-75
2022/07/12 15:44:48;;;;;;;7.55;1.90;;;;;;;;;;10015965;28;20092;-75
2022/07/12 15:49:46;;;;;;;6.18;1.65;;;;;;;;;;10025835;28;20102;-75
2022/07/12 15:54:40;;;;;;;4.13;1.98;;;;;;;;;;10011809;28;20045;-76
2022/07/12 15:59:34;;;;;;;11.70;2.33;;;;;;;;;;10056622;28;20061;-75
2022/07/12 16:04:31;;;;;;;5.88;1.85;;;;;;;;;;10034422;28;20045;-74
2022/07/12 16:09:25;;;;;;;6.22;1.85;;;;;;;;;;10048412;28;20054;-76
2022/07/12 16:14:19;;;;;;;5.72;1.98;;;;;;;;;;10021222;28;20140;-77
2022/07/12 16:19:16;;;;;;;5.45;1.90;;;;;;;;;;10041632;28;20050;-77
2022/07/12 16:24:09;;;;;;;5.03;1.95;;;;;;;;;;10038341;28;20060;-76
2022/07/12 16:29:03;;;;;;;7.18;2.47;;;;;;;;;;10049212;28;20054;-76
2022/07/12 16:33:57;;;;;;;6.18;1.73;;;;;;;;;;10039623;28;20054;-77
2022/07/12 16:38:52;;;;;;;11.35;2.13;;;;;;;;;;10015898;28;20064;-76
2022/07/12 16:43:45;;;;;;;6.60;2.00;;;;;;;;;;10046516;28;20049;-76
2022/07/12 16:48:40;;;;;;;6.28;2.63;;;;;;;;;;10053978;28;20061;-76
2022/07/12 16:53:34;;;;;;;4.70;1.70;;;;;;;;;;10047616;28;20452;-76
2022/07/12 16:58:28;;;;;;;8.73;1.65;;;;;;;;;;10011906;28;20072;-75
2022/07/12 17:03:21;;;;;;;6.40;2.03;;;;;;;;;;10017990;28;20056;-70
2022/07/12 17:08:15;;;;;;;4.35;1.50;;;;;;;;;;10037049;28;20049;-69
2022/07/12 17:13:10;;;;;;;7.32;1.85;;;;;;;;;;10035572;28;20045;-69
2022/07/12 17:18:04;;;;;;;8.85;2.75;;;;;;;;;;10025232;28;20061;-68
2022/07/12 17:22:57;;;;;;;2.80;1.45;;;;;;;;;;10039903;28;20056;-69
2022/07/12 17:27:52;;;;;;;7.13;2.00;;;;;;;;;;10032966;28;20052;-68
2022/07/12 17:32:46;;;;;;;2.97;1.67;;;;;;;;;;10025279;28;20050;-67
2022/07/12 17:37:41;;;;;;;4.90;1.70;;;;;;;;;;10022240;28;20416;-69
2022/07/12 17:42:35;;;;;;;6.30;1.92;;;;;;;;;;10031460;28;20058;-69
2022/07/12 17:47:32;;;;;;;6.50;1.90;;;;;;;;;;10032198;28;20511;-69
2022/07/12 17:52:26;;;;;;;6.05;1.52;;;;;;;;;;10022394;28;20531;-69
2022/07/12 17:57:20;;;;;;;7.80;1.92;;;;;;;;;;10041446;28;20497;-67
2022/07/12 18:02:14;;;;;;;4.57;1.83;;;;;;;;;;10035117;28;20387;-68
2022/07/12 18:07:08;;;;;;;6.80;1.98;;;;;;;;;;10060917;28;20085;-68
2022/07/12 18:22:33;;;;;;;13.80;2.72;;;;;;;;;;10038416;28;20046;-67
2022/07/12 18:27:33;;;;;;;7.35;1.92;;;;;;;;;;10032313;28;20137;-67
2022/07/12 18:32:30;;;;;;;8.23;1.75;;;;;;;;;;10028521;28;20383;-69
2022/07/12 18:37:26;;;;;;;6.05;2.67;;;;;;;;;;10022376;28;20370;-67
2022/07/12 18:42:19;;;;;;;6.50;2.10;;;;;;;;;;10020414;28;20052;-66
2022/07/12 18:47:14;;;;;;;4.47;1.83;;;;;;;;;;10019319;28;20065;-66
2022/07/12 18:52:11;;;;;;;2.28;1.95;;;;;;;;;;10024433;28;20129;-67
2022/07/12 18:57:07;;;;;;;4.75;1.85;;;;;;;;;;10020636;28;20052;-67
2022/07/12 19:02:00;;;;;;;3.35;1.80;;;;;;;;;;10019370;28;20058;-67
2022/07/12 19:06:56;;;;;;;11.20;1.83;;;;;;;;;;10020095;28;20050;-67
2022/07/12 19:11:54;;;;;;;4.55;1.52;;;;;;;;;;10015890;28;20406;-65
2022/07/12 19:16:48;;;;;;;3.22;1.80;;;;;;;;;;10023747;28;20104;-66
2022/07/12 19:21:47;;;;;;;5.88;1.65;;;;;;;;;;10020640;28;20554;-66
2022/07/12 19:26:40;;;;;;;2.78;1.50;;;;;;;;;;10030572;28;20131;-66
2022/07/12 19:31:35;;;;;;;5.43;1.73;;;;;;;;;;10029328;28;20404;-66
2022/07/12 19:36:29;;;;;;;2.33;1.40;;;;;;;;;;10027634;28;20121;-66
2022/07/12 19:41:23;;;;;;;5.43;2.00;;;;;;;;;;10026319;28;20107;-66
2022/07/12 19:46:17;;;;;;;5.70;2.47;;;;;;;;;;10042285;28;20466;-68
2022/07/12 19:51:11;;;;;;;3.20;1.77;;;;;;;;;;10026475;28;20069;-68
2022/07/12 19:56:07;;;;;;;3.90;1.65;;;;;;;;;;10016834;28;20042;-68
2022/07/12 20:01:00;;;;;;;3.92;2.15;;;;;;;;;;10020826;28;20066;-69
2022/07/12 20:05:54;;;;;;;3.63;1.83;;;;;;;;;;10017481;28;20456;-68
2022/07/12 20:10:48;;;;;;;8.43;2.28;;;;;;;;;;10018747;28;20076;-69
2022/07/12 20:15:42;;;;;;;6.10;1.67;;;;;;;;;;10017596;28;20078;-69
2022/07/12 20:20:39;;;;;;;7.95;2.72;;;;;;;;;;10022663;28;20075;-71
2022/07/12 20:25:33;;;;;;;4.75;1.83;;;;;;;;;;10015862;28;20086;-70
2022/07/12 20:30:26;;;;;;;2.28;1.85;;;;;;;;;;10021427;28;20077;-69
2022/07/12 20:35:20;;;;;;;4.57;1.80;;;;;;;;;;10010674;28;20046;-70
2022/07/12 20:40:14;;;;;;;4.25;1.98;;;;;;;;;;10032300;28;20076;-70
2022/07/12 20:45:09;;;;;;;4.07;1.73;;;;;;;;;;10029283;28;20057;-70
2022/07/12 20:50:05;;;;;;;9.52;2.33;;;;;;;;;;10031438;28;20100;-71
2022/07/12 20:55:02;;;;;;;2.92;1.90;;;;;;;;;;10038006;28;20042;-71
2022/07/12 20:59:56;;;;;;;4.93;1.77;;;;;;;;;;10034491;28;20078;-70
2022/07/12 21:04:50;;;;;;;3.78;1.85;;;;;;;;;;10036006;28;20092;-70
2022/07/12 21:09:45;;;;;;;6.30;2.10;;;;;;;;;;10034321;28;20508;-71
2022/07/12 21:14:40;;;;;;;8.23;2.33;;;;;;;;;;10032513;28;20060;-70
2022/07/12 21:19:34;;;;;;;7.50;2.22;;;;;;;;;;10034336;28;20063;-71
2022/07/12 21:24:29;;;;;;;3.00;2.03;;;;;;;;;;10038820;28;20053;-71
2022/07/12 21:29:22;;;;;;;2.50;2.22;;;;;;;;;;10025122;28;20074;-71
2022/07/12 21:34:16;;;;;;;3.08;1.98;;;;;;;;;;10041851;28;20497;-71
2022/07/12 21:39:10;;;;;;;10.57;2.33;;;;;;;;;;10027225;28;20054;-69
2022/07/12 21:44:05;;;;;;;5.35;2.05;;;;;;;;;;10041531;28;20077;-68
2022/07/12 21:48:59;;;;;;;3.28;2.25;;;;;;;;;;10043595;28;20042;-68
2022/07/12 21:53:53;;;;;;;4.43;2.17;;;;;;;;;;10044881;28;20254;-68
2022/07/12 21:58:47;;;;;;;9.82;2.20;;;;;;;;;;10045708;28;20056;-68
2022/07/12 22:03:42;;;;;;;6.15;2.60;;;;;;;;;;10042328;28;20049;-68
2022/07/12 22:08:36;;;;;;;4.60;2.60;;;;;;;;;;10051153;28;20123;-68
2022/07/12 22:13:30;;;;;;;4.95;2.25;;;;;;;;;;10046112;28;20126;-68
2022/07/12 22:18:24;;;;;;;3.80;2.10;;;;;;;;;;10059743;28;20464;-68
2022/07/12 22:23:17;;;;;;;8.25;3.33;;;;;;;;;;10048095;28;20050;-68
2022/07/12 22:28:11;;;;;;;6.85;2.00;;;;;;;;;;10053320;28;20076;-68
2022/07/12 22:33:05;;;;;;;3.92;2.30;;;;;;;;;;10050710;28;20049;-68
2022/07/12 22:37:58;;;;;;;2.67;2.42;;;;;;;;;;10049965;28;20069;-68
2022/07/12 22:42:52;;;;;;;5.47;2.53;;;;;;;;;;10038678;28;20052;-69
2022/07/12 22:47:47;;;;;;;4.82;2.20;;;;;;;;;;10013284;28;20172;-68
2022/07/12 22:52:41;;;;;;;11.80;2.72;;;;;;;;;;10028518;28;20100;-68
2022/07/12 22:57:35;;;;;;;2.83;2.13;;;;;;;;;;10042966;28;20148;-68
2022/07/12 23:02:30;;;;;;;6.40;2.60;;;;;;;;;;10051546;28;20085;-69
2022/07/12 23:07:24;;;;;;;5.43;2.72;;;;;;;;;;10045189;28;20116;-69
2022/07/12 23:12:19;;;;;;;10.50;3.22;;;;;;;;;;10058282;28;20053;-69
2022/07/12 23:17:12;;;;;;;8.63;3.10;;;;;;;;;;10029147;28;20038;-68
2022/07/12 23:22:08;;;;;;;8.05;2.97;;;;;;;;;;10035483;28;20488;-69
2022/07/12 23:27:03;;;;;;;7.55;2.47;;;;;;;;;;10023972;28;20085;-68
2022/07/12 23:31:57;;;;;;;2.90;2.40;;;;;;;;;;10043473;28;20061;-70
2022/07/12 23:36:52;;;;;;;2.85;2.55;;;;;;;;;;10032277;28;20467;-68
2022/07/12 23:41:45;;;;;;;6.90;2.72;;;;;;;;;;10049234;28;20050;-68
2022/07/12 23:46:39;;;;;;;4.43;3.08;;;;;;;;;;10038253;28;20479;-68
2022/07/12 23:51:34;;;;;;;9.27;3.58;;;;;;;;;;10039572;28;20104;-68
2022/07/12 23:56:27;;;;;;;7.28;3.55;;;;;;;;;;10035761;28;20501;-69
